sensor_id;sensor_type;location;lat;lon;timestamp;P1;durP1;ratioP1;P2;durP2;ratioP2
50345;SDS011;36248;37.258;-121.918;2022-08-19T00:00:17;7.21;;;7.20;;
50345;SDS011;36248;37.258;-121.918;2022-08-19T00:02:47;6.93;;;6.93;;
50345;SDS011;36248;37.258;-121.918;2022-08-19T00:05:17;7.45;;;7.44;;
50345;SDS011;36248;37.258;-121.918;2022-08-19T00:07:47;7.66;;;7.63;;
50345;SDS011;36248;37.258;-121.918;2022-08-19T00:10:18;7.64;;;7.64;;
50345;SDS011;36248;37.258;-121.918;2022-08-19T00:12:52;8.00;;;8.00;;
50345;SDS011;36248;37.258;-121.918;2022-08-19T00:15:22;7.41;;;7.41;;
50345;SDS011;36248;37.258;-121.918;2022-08-19T00:17:50;7.22;;;7.22;;
50345;SDS011;36248;37.258;-121.918;2022-08-19T00:20:20;7.24;;;7.24;;
50345;SDS011;36248;37.258;-121.918;2022-08-19T00:22:50;7.34;;;7.34;;
50345;SDS011;36248;37.258;-121.918;2022-08-19T00:25:20;7.45;;;7.45;;
50345;SDS011;36248;37.258;-121.918;2022-08-19T00:27:52;7.75;;;7.66;;
50345;SDS011;36248;37.258;-121.918;2022-08-19T00:30:21;8.12;;;8.02;;
50345;SDS011;36248;37.258;-121.918;2022-08-19T00:32:51;8.33;;;8.21;;
50345;SDS011;36248;37.258;-121.918;2022-08-19T00:35:20;7.65;;;7.62;;
50345;SDS011;36248;37.258;-121.918;2022-08-19T00:37:49;7.83;;;7.83;;
50345;SDS011;36248;37.258;-121.918;2022-08-19T00:40:19;7.22;;;7.22;;
50345;SDS011;36248;37.258;-121.918;2022-08-19T00:42:53;7.44;;;7.44;;
50345;SDS011;36248;37.258;-121.918;2022-08-19T00:45:25;6.98;;;6.98;;
50345;SDS011;36248;37.258;-121.918;2022-08-19T00:47:57;7.02;;;7.00;;
50345;SDS011;36248;37.258;-121.918;2022-08-19T00:50:30;7.19;;;7.19;;
50345;SDS011;36248;37.258;-121.918;2022-08-19T00:53:00;6.62;;;6.62;;
50345;SDS011;36248;37.258;-121.918;2022-08-19T00:55:31;6.74;;;6.74;;
50345;SDS011;36248;37.258;-121.918;2022-08-19T00:58:05;6.40;;;6.40;;
50345;SDS011;36248;37.258;-121.918;2022-08-19T01:00:37;6.25;;;6.25;;
50345;SDS011;36248;37.258;-121.918;2022-08-19T01:03:08;6.23;;;6.23;;
50345;SDS011;36248;37.258;-121.918;2022-08-19T01:05:39;6.28;;;6.28;;
50345;SDS011;36248;37.258;-121.918;2022-08-19T01:08:11;6.22;;;6.22;;
50345;SDS011;36248;37.258;-121.918;2022-08-19T01:10:43;6.96;;;6.96;;
50345;SDS011;36248;37.258;-121.918;2022-08-19T01:13:16;6.89;;;6.89;;
50345;SDS011;36248;37.258;-121.918;2022-08-19T01:15:50;6.47;;;6.47;;
50345;SDS011;36248;37.258;-121.918;2022-08-19T01:18:22;6.09;;;6.09;;
50345;SDS011;36248;37.258;-121.918;2022-08-19T01:20:53;5.42;;;5.41;;
50345;SDS011;36248;37.258;-121.918;2022-08-19T01:23:28;5.57;;;5.57;;
50345;SDS011;36248;37.258;-121.918;2022-08-19T01:26:10;5.91;;;5.91;;
50345;SDS011;36248;37.258;-121.918;2022-08-19T01:28:42;5.64;;;5.64;;
50345;SDS011;36248;37.258;-121.918;2022-08-19T01:31:13;5.44;;;5.44;;
50345;SDS011;36248;37.258;-121.918;2022-08-19T01:33:44;4.52;;;4.52;;
50345;SDS011;36248;37.258;-121.918;2022-08-19T01:36:15;4.98;;;4.94;;
50345;SDS011;36248;37.258;-121.918;2022-08-19T01:38:54;4.97;;;4.97;;
50345;SDS011;36248;37.258;-121.918;2022-08-19T01:41:24;4.89;;;4.89;;
50345;SDS011;36248;37.258;-121.918;2022-08-19T01:43:55;4.99;;;4.99;;
50345;SDS011;36248;37.258;-121.918;2022-08-19T01:46:24;4.79;;;4.76;;
50345;SDS011;36248;37.258;-121.918;2022-08-19T01:48:53;4.86;;;4.79;;
50345;SDS011;36248;37.258;-121.918;2022-08-19T01:51:22;4.61;;;4.56;;
50345;SDS011;36248;37.258;-121.918;2022-08-19T01:53:55;4.91;;;4.86;;
50345;SDS011;36248;37.258;-121.918;2022-08-19T01:56:25;4.86;;;4.75;;
50345;SDS011;36248;37.258;-121.918;2022-08-19T01:58:55;5.22;;;5.13;;
50345;SDS011;36248;37.258;-121.918;2022-08-19T02:01:29;4.65;;;4.59;;
50345;SDS011;36248;37.258;-121.918;2022-08-19T02:04:00;4.80;;;4.76;;
50345;SDS011;36248;37.258;-121.918;2022-08-19T02:06:30;4.60;;;4.60;;
50345;SDS011;36248;37.258;-121.918;2022-08-19T02:09:03;4.55;;;4.53;;
50345;SDS011;36248;37.258;-121.918;2022-08-19T02:11:35;4.36;;;4.36;;
50345;SDS011;36248;37.258;-121.918;2022-08-19T02:14:06;4.31;;;4.31;;
50345;SDS011;36248;37.258;-121.918;2022-08-19T02:16:36;4.18;;;4.18;;
50345;SDS011;36248;37.258;-121.918;2022-08-19T02:19:06;4.19;;;4.16;;
50345;SDS011;36248;37.258;-121.918;2022-08-19T02:21:36;4.62;;;4.60;;
50345;SDS011;36248;37.258;-121.918;2022-08-19T02:24:08;4.17;;;4.16;;
50345;SDS011;36248;37.258;-121.918;2022-08-19T02:26:38;4.21;;;4.21;;
50345;SDS011;36248;37.258;-121.918;2022-08-19T02:29:07;4.46;;;4.40;;
50345;SDS011;36248;37.258;-121.918;2022-08-19T02:31:37;4.16;;;4.09;;
50345;SDS011;36248;37.258;-121.918;2022-08-19T02:34:07;4.00;;;3.96;;
50345;SDS011;36248;37.258;-121.918;2022-08-19T02:36:36;3.98;;;3.97;;
50345;SDS011;36248;37.258;-121.918;2022-08-19T02:39:08;3.89;;;3.89;;
50345;SDS011;36248;37.258;-121.918;2022-08-19T02:41:37;3.84;;;3.84;;
50345;SDS011;36248;37.258;-121.918;2022-08-19T02:44:07;3.66;;;3.66;;
50345;SDS011;36248;37.258;-121.918;2022-08-19T02:46:36;3.71;;;3.71;;
50345;SDS011;36248;37.258;-121.918;2022-08-19T02:49:07;3.54;;;3.54;;
50345;SDS011;36248;37.258;-121.918;2022-08-19T02:51:43;3.81;;;3.81;;
50345;SDS011;36248;37.258;-121.918;2022-08-19T02:54:16;3.76;;;3.76;;
50345;SDS011;36248;37.258;-121.918;2022-08-19T02:56:46;3.72;;;3.72;;
50345;SDS011;36248;37.258;-121.918;2022-08-19T02:59:15;3.84;;;3.82;;
50345;SDS011;36248;37.258;-121.918;2022-08-19T03:01:45;3.81;;;3.77;;
50345;SDS011;36248;37.258;-121.918;2022-08-19T03:04:15;4.13;;;4.07;;
50345;SDS011;36248;37.258;-121.918;2022-08-19T03:06:45;4.31;;;4.27;;
50345;SDS011;36248;37.258;-121.918;2022-08-19T03:09:19;4.16;;;4.16;;
50345;SDS011;36248;37.258;-121.918;2022-08-19T03:11:49;4.27;;;4.26;;
50345;SDS011;36248;37.258;-121.918;2022-08-19T03:14:18;4.38;;;4.38;;
50345;SDS011;36248;37.258;-121.918;2022-08-19T03:16:49;4.33;;;4.28;;
50345;SDS011;36248;37.258;-121.918;2022-08-19T03:19:20;4.28;;;4.27;;
50345;SDS011;36248;37.258;-121.918;2022-08-19T03:21:50;4.25;;;4.25;;
50345;SDS011;36248;37.258;-121.918;2022-08-19T03:24:23;4.67;;;4.67;;
50345;SDS011;36248;37.258;-121.918;2022-08-19T03:26:54;4.52;;;4.52;;
50345;SDS011;36248;37.258;-121.918;2022-08-19T03:29:24;4.61;;;4.61;;
50345;SDS011;36248;37.258;-121.918;2022-08-19T03:31:54;4.49;;;4.48;;
50345;SDS011;36248;37.258;-121.918;2022-08-19T03:34:25;4.60;;;4.55;;
50345;SDS011;36248;37.258;-121.918;2022-08-19T03:36:57;4.69;;;4.65;;
50345;SDS011;36248;37.258;-121.918;2022-08-19T03:39:33;5.02;;;5.00;;
50345;SDS011;36248;37.258;-121.918;2022-08-19T03:42:03;4.60;;;4.58;;
50345;SDS011;36248;37.258;-121.918;2022-08-19T03:44:33;5.05;;;5.05;;
50345;SDS011;36248;37.258;-121.918;2022-08-19T03:47:03;4.68;;;4.68;;
50345;SDS011;36248;37.258;-121.918;2022-08-19T03:49:33;4.92;;;4.91;;
50345;SDS011;36248;37.258;-121.918;2022-08-19T03:52:03;4.97;;;4.97;;
50345;SDS011;36248;37.258;-121.918;2022-08-19T03:54:36;4.98;;;4.98;;
50345;SDS011;36248;37.258;-121.918;2022-08-19T03:57:06;4.93;;;4.93;;
50345;SDS011;36248;37.258;-121.918;2022-08-19T03:59:35;4.83;;;4.74;;
50345;SDS011;36248;37.258;-121.918;2022-08-19T04:02:06;4.94;;;4.88;;
50345;SDS011;36248;37.258;-121.918;2022-08-19T04:04:39;4.87;;;4.87;;
50345;SDS011;36248;37.258;-121.918;2022-08-19T04:07:11;5.38;;;5.35;;
50345;SDS011;36248;37.258;-121.918;2022-08-19T04:09:45;4.99;;;4.99;;
50345;SDS011;36248;37.258;-121.918;2022-08-19T04:12:14;5.04;;;4.98;;
50345;SDS011;36248;37.258;-121.918;2022-08-19T04:14:46;5.18;;;5.17;;
50345;SDS011;36248;37.258;-121.918;2022-08-19T04:17:15;5.37;;;5.37;;
50345;SDS011;36248;37.258;-121.918;2022-08-19T04:19:44;5.23;;;5.23;;
50345;SDS011;36248;37.258;-121.918;2022-08-19T04:22:14;5.25;;;5.22;;
50345;SDS011;36248;37.258;-121.918;2022-08-19T04:24:46;4.95;;;4.95;;
50345;SDS011;36248;37.258;-121.918;2022-08-19T04:27:17;5.27;;;5.19;;
50345;SDS011;36248;37.258;-121.918;2022-08-19T04:29:47;5.42;;;5.38;;
50345;SDS011;36248;37.258;-121.918;2022-08-19T04:32:18;4.98;;;4.97;;
50345;SDS011;36248;37.258;-121.918;2022-08-19T04:34:48;5.15;;;5.14;;
50345;SDS011;36248;37.258;-121.918;2022-08-19T04:37:17;5.17;;;5.17;;
50345;SDS011;36248;37.258;-121.918;2022-08-19T04:39:50;5.36;;;5.36;;
50345;SDS011;36248;37.258;-121.918;2022-08-19T04:42:35;5.14;;;5.12;;
50345;SDS011;36248;37.258;-121.918;2022-08-19T04:45:09;5.42;;;5.41;;
50345;SDS011;36248;37.258;-121.918;2022-08-19T04:47:41;5.28;;;5.28;;
50345;SDS011;36248;37.258;-121.918;2022-08-19T04:50:12;5.20;;;5.20;;
50345;SDS011;36248;37.258;-121.918;2022-08-19T04:52:42;5.29;;;5.26;;
50345;SDS011;36248;37.258;-121.918;2022-08-19T04:55:15;5.24;;;5.15;;
50345;SDS011;36248;37.258;-121.918;2022-08-19T04:57:45;5.19;;;5.15;;
50345;SDS011;36248;37.258;-121.918;2022-08-19T05:00:14;5.06;;;5.05;;
50345;SDS011;36248;37.258;-121.918;2022-08-19T05:02:44;5.10;;;5.10;;
50345;SDS011;36248;37.258;-121.918;2022-08-19T05:05:14;5.29;;;5.26;;
50345;SDS011;36248;37.258;-121.918;2022-08-19T05:07:45;5.21;;;5.20;;
50345;SDS011;36248;37.258;-121.918;2022-08-19T05:10:17;5.30;;;5.28;;
50345;SDS011;36248;37.258;-121.918;2022-08-19T05:12:47;5.32;;;5.27;;
50345;SDS011;36248;37.258;-121.918;2022-08-19T05:15:16;5.42;;;5.41;;
50345;SDS011;36248;37.258;-121.918;2022-08-19T05:17:45;5.79;;;5.78;;
50345;SDS011;36248;37.258;-121.918;2022-08-19T05:20:27;5.34;;;5.31;;
50345;SDS011;36248;37.258;-121.918;2022-08-19T05:23:13;5.53;;;5.45;;
50345;SDS011;36248;37.258;-121.918;2022-08-19T05:25:45;5.48;;;5.46;;
50345;SDS011;36248;37.258;-121.918;2022-08-19T05:28:14;5.33;;;5.25;;
50345;SDS011;36248;37.258;-121.918;2022-08-19T05:30:44;5.37;;;5.30;;
50345;SDS011;36248;37.258;-121.918;2022-08-19T05:33:16;5.34;;;5.26;;
50345;SDS011;36248;37.258;-121.918;2022-08-19T05:35:46;5.52;;;5.46;;
50345;SDS011;36248;37.258;-121.918;2022-08-19T05:38:16;5.53;;;5.49;;
50345;SDS011;36248;37.258;-121.918;2022-08-19T05:40:49;5.75;;;5.66;;
50345;SDS011;36248;37.258;-121.918;2022-08-19T05:43:18;5.60;;;5.43;;
50345;SDS011;36248;37.258;-121.918;2022-08-19T05:45:48;5.36;;;5.21;;
50345;SDS011;36248;37.258;-121.918;2022-08-19T05:48:18;5.55;;;5.49;;
50345;SDS011;36248;37.258;-121.918;2022-08-19T05:50:47;5.05;;;5.03;;
50345;SDS011;36248;37.258;-121.918;2022-08-19T05:53:18;4.95;;;4.93;;
50345;SDS011;36248;37.258;-121.918;2022-08-19T05:55:50;5.13;;;5.06;;
50345;SDS011;36248;37.258;-121.918;2022-08-19T05:58:20;4.81;;;4.74;;
50345;SDS011;36248;37.258;-121.918;2022-08-19T06:00:50;4.96;;;4.90;;
50345;SDS011;36248;37.258;-121.918;2022-08-19T06:03:20;4.87;;;4.85;;
50345;SDS011;36248;37.258;-121.918;2022-08-19T06:05:50;4.39;;;4.39;;
50345;SDS011;36248;37.258;-121.918;2022-08-19T06:08:20;4.54;;;4.54;;
50345;SDS011;36248;37.258;-121.918;2022-08-19T06:10:52;5.13;;;5.13;;
50345;SDS011;36248;37.258;-121.918;2022-08-19T06:13:22;4.94;;;4.93;;
50345;SDS011;36248;37.258;-121.918;2022-08-19T06:15:52;4.77;;;4.77;;
50345;SDS011;36248;37.258;-121.918;2022-08-19T06:18:21;4.59;;;4.59;;
50345;SDS011;36248;37.258;-121.918;2022-08-19T06:20:50;4.64;;;4.63;;
50345;SDS011;36248;37.258;-121.918;2022-08-19T06:23:20;4.57;;;4.57;;
50345;SDS011;36248;37.258;-121.918;2022-08-19T06:25:52;4.87;;;4.87;;
50345;SDS011;36248;37.258;-121.918;2022-08-19T06:28:22;4.84;;;4.83;;
50345;SDS011;36248;37.258;-121.918;2022-08-19T06:30:52;4.94;;;4.90;;
50345;SDS011;36248;37.258;-121.918;2022-08-19T06:33:22;4.81;;;4.80;;
50345;SDS011;36248;37.258;-121.918;2022-08-19T06:35:52;4.50;;;4.50;;
50345;SDS011;36248;37.258;-121.918;2022-08-19T06:38:22;4.23;;;4.23;;
50345;SDS011;36248;37.258;-121.918;2022-08-19T06:41:01;4.49;;;4.49;;
50345;SDS011;36248;37.258;-121.918;2022-08-19T06:43:31;4.70;;;4.69;;
50345;SDS011;36248;37.258;-121.918;2022-08-19T06:46:01;4.69;;;4.67;;
50345;SDS011;36248;37.258;-121.918;2022-08-19T06:48:32;4.46;;;4.41;;
50345;SDS011;36248;37.258;-121.918;2022-08-19T06:51:02;4.37;;;4.35;;
50345;SDS011;36248;37.258;-121.918;2022-08-19T06:53:32;4.23;;;4.21;;
50345;SDS011;36248;37.258;-121.918;2022-08-19T06:56:05;4.23;;;4.22;;
50345;SDS011;36248;37.258;-121.918;2022-08-19T06:58:35;4.21;;;4.21;;
50345;SDS011;36248;37.258;-121.918;2022-08-19T07:01:05;4.37;;;4.37;;
50345;SDS011;36248;37.258;-121.918;2022-08-19T07:03:35;4.38;;;4.38;;
50345;SDS011;36248;37.258;-121.918;2022-08-19T07:06:06;4.44;;;4.44;;
50345;SDS011;36248;37.258;-121.918;2022-08-19T07:08:41;4.36;;;4.36;;
50345;SDS011;36248;37.258;-121.918;2022-08-19T07:11:16;4.30;;;4.30;;
50345;SDS011;36248;37.258;-121.918;2022-08-19T07:13:47;4.33;;;4.33;;
50345;SDS011;36248;37.258;-121.918;2022-08-19T07:16:17;4.53;;;4.53;;
50345;SDS011;36248;37.258;-121.918;2022-08-19T07:18:47;4.66;;;4.61;;
50345;SDS011;36248;37.258;-121.918;2022-08-19T07:21:18;4.61;;;4.60;;
50345;SDS011;36248;37.258;-121.918;2022-08-19T07:23:49;4.45;;;4.36;;
50345;SDS011;36248;37.258;-121.918;2022-08-19T07:26:23;4.36;;;4.28;;
50345;SDS011;36248;37.258;-121.918;2022-08-19T07:28:54;4.43;;;4.41;;
50345;SDS011;36248;37.258;-121.918;2022-08-19T07:31:25;4.35;;;4.35;;
50345;SDS011;36248;37.258;-121.918;2022-08-19T07:33:56;4.40;;;4.39;;
50345;SDS011;36248;37.258;-121.918;2022-08-19T07:36:26;3.94;;;3.93;;
50345;SDS011;36248;37.258;-121.918;2022-08-19T07:38:58;4.15;;;4.14;;
50345;SDS011;36248;37.258;-121.918;2022-08-19T07:41:34;4.28;;;4.24;;
50345;SDS011;36248;37.258;-121.918;2022-08-19T07:44:04;3.97;;;3.97;;
50345;SDS011;36248;37.258;-121.918;2022-08-19T07:46:35;4.16;;;4.16;;
50345;SDS011;36248;37.258;-121.918;2022-08-19T07:49:08;4.11;;;4.11;;
50345;SDS011;36248;37.258;-121.918;2022-08-19T07:51:40;4.39;;;4.38;;
50345;SDS011;36248;37.258;-121.918;2022-08-19T07:54:09;4.15;;;4.15;;
50345;SDS011;36248;37.258;-121.918;2022-08-19T07:56:41;4.22;;;4.19;;
50345;SDS011;36248;37.258;-121.918;2022-08-19T07:59:11;3.87;;;3.82;;
50345;SDS011;36248;37.258;-121.918;2022-08-19T08:01:43;4.23;;;4.17;;
50345;SDS011;36248;37.258;-121.918;2022-08-19T08:04:13;4.11;;;4.10;;
50345;SDS011;36248;37.258;-121.918;2022-08-19T08:06:59;4.01;;;4.01;;
50345;SDS011;36248;37.258;-121.918;2022-08-19T08:09:45;4.18;;;4.18;;
50345;SDS011;36248;37.258;-121.918;2022-08-19T08:12:20;4.00;;;4.00;;
50345;SDS011;36248;37.258;-121.918;2022-08-19T08:14:55;3.92;;;3.88;;
50345;SDS011;36248;37.258;-121.918;2022-08-19T08:17:28;3.82;;;3.78;;
50345;SDS011;36248;37.258;-121.918;2022-08-19T08:19:58;3.90;;;3.84;;
50345;SDS011;36248;37.258;-121.918;2022-08-19T08:22:28;3.51;;;3.49;;
50345;SDS011;36248;37.258;-121.918;2022-08-19T08:25:15;3.35;;;3.33;;
50345;SDS011;36248;37.258;-121.918;2022-08-19T08:27:51;3.40;;;3.37;;
50345;SDS011;36248;37.258;-121.918;2022-08-19T08:30:22;3.56;;;3.54;;
50345;SDS011;36248;37.258;-121.918;2022-08-19T08:32:53;3.66;;;3.62;;
50345;SDS011;36248;37.258;-121.918;2022-08-19T08:35:23;3.66;;;3.62;;
50345;SDS011;36248;37.258;-121.918;2022-08-19T08:37:53;3.60;;;3.60;;
50345;SDS011;36248;37.258;-121.918;2022-08-19T08:40:27;3.72;;;3.72;;
50345;SDS011;36248;37.258;-121.918;2022-08-19T08:43:03;3.43;;;3.39;;
50345;SDS011;36248;37.258;-121.918;2022-08-19T08:45:40;3.36;;;3.35;;
50345;SDS011;36248;37.258;-121.918;2022-08-19T08:48:18;3.48;;;3.48;;
50345;SDS011;36248;37.258;-121.918;2022-08-19T08:50:53;3.22;;;3.22;;
50345;SDS011;36248;37.258;-121.918;2022-08-19T08:53:24;3.04;;;3.04;;
50345;SDS011;36248;37.258;-121.918;2022-08-19T08:55:54;3.42;;;3.42;;
50345;SDS011;36248;37.258;-121.918;2022-08-19T08:58:28;3.26;;;3.24;;
50345;SDS011;36248;37.258;-121.918;2022-08-19T09:01:14;3.33;;;3.30;;
50345;SDS011;36248;37.258;-121.918;2022-08-19T09:03:44;3.03;;;3.02;;
50345;SDS011;36248;37.258;-121.918;2022-08-19T09:06:18;3.63;;;3.63;;
50345;SDS011;36248;37.258;-121.918;2022-08-19T09:08:56;3.71;;;3.70;;
50345;SDS011;36248;37.258;-121.918;2022-08-19T09:11:36;4.60;;;4.60;;
50345;SDS011;36248;37.258;-121.918;2022-08-19T09:14:27;5.45;;;5.42;;
50345;SDS011;36248;37.258;-121.918;2022-08-19T09:17:07;5.57;;;5.48;;
50345;SDS011;36248;37.258;-121.918;2022-08-19T09:19:46;6.65;;;6.48;;
50345;SDS011;36248;37.258;-121.918;2022-08-19T09:22:20;6.08;;;5.96;;
50345;SDS011;36248;37.258;-121.918;2022-08-19T09:24:52;5.57;;;5.48;;
50345;SDS011;36248;37.258;-121.918;2022-08-19T09:27:23;5.81;;;5.75;;
50345;SDS011;36248;37.258;-121.918;2022-08-19T09:29:57;6.35;;;6.34;;
50345;SDS011;36248;37.258;-121.918;2022-08-19T09:32:27;6.43;;;6.33;;
50345;SDS011;36248;37.258;-121.918;2022-08-19T09:34:57;6.49;;;6.38;;
50345;SDS011;36248;37.258;-121.918;2022-08-19T09:37:27;6.26;;;6.21;;
50345;SDS011;36248;37.258;-121.918;2022-08-19T09:39:57;6.03;;;6.02;;
50345;SDS011;36248;37.258;-121.918;2022-08-19T09:42:27;6.02;;;6.02;;
50345;SDS011;36248;37.258;-121.918;2022-08-19T09:45:01;6.76;;;6.72;;
50345;SDS011;36248;37.258;-121.918;2022-08-19T09:47:30;7.01;;;6.89;;
50345;SDS011;36248;37.258;-121.918;2022-08-19T09:50:01;6.98;;;6.88;;
50345;SDS011;36248;37.258;-121.918;2022-08-19T09:52:31;6.60;;;6.60;;
50345;SDS011;36248;37.258;-121.918;2022-08-19T09:55:02;6.81;;;6.81;;
50345;SDS011;36248;37.258;-121.918;2022-08-19T09:57:32;6.13;;;6.13;;
50345;SDS011;36248;37.258;-121.918;2022-08-19T10:00:05;6.24;;;6.23;;
50345;SDS011;36248;37.258;-121.918;2022-08-19T10:02:37;6.62;;;6.59;;
50345;SDS011;36248;37.258;-121.918;2022-08-19T10:05:06;6.44;;;6.40;;
50345;SDS011;36248;37.258;-121.918;2022-08-19T10:07:52;6.32;;;6.18;;
50345;SDS011;36248;37.258;-121.918;2022-08-19T10:10:22;6.88;;;6.78;;
50345;SDS011;36248;37.258;-121.918;2022-08-19T10:12:51;6.48;;;6.46;;
50345;SDS011;36248;37.258;-121.918;2022-08-19T10:15:27;6.60;;;6.53;;
50345;SDS011;36248;37.258;-121.918;2022-08-19T10:17:57;6.54;;;6.53;;
50345;SDS011;36248;37.258;-121.918;2022-08-19T10:20:26;6.53;;;6.53;;
50345;SDS011;36248;37.258;-121.918;2022-08-19T10:22:57;6.42;;;6.42;;
50345;SDS011;36248;37.258;-121.918;2022-08-19T10:25:27;7.52;;;7.43;;
50345;SDS011;36248;37.258;-121.918;2022-08-19T10:27:57;6.67;;;6.64;;
50345;SDS011;36248;37.258;-121.918;2022-08-19T10:30:30;7.14;;;7.04;;
50345;SDS011;36248;37.258;-121.918;2022-08-19T10:33:00;7.24;;;7.22;;
50345;SDS011;36248;37.258;-121.918;2022-08-19T10:35:29;7.30;;;7.28;;
50345;SDS011;36248;37.258;-121.918;2022-08-19T10:37:59;6.45;;;6.44;;
50345;SDS011;36248;37.258;-121.918;2022-08-19T10:40:29;6.38;;;6.38;;
50345;SDS011;36248;37.258;-121.918;2022-08-19T10:42:58;6.31;;;6.30;;
50345;SDS011;36248;37.258;-121.918;2022-08-19T10:45:30;7.06;;;7.00;;
50345;SDS011;36248;37.258;-121.918;2022-08-19T10:48:04;7.64;;;7.40;;
50345;SDS011;36248;37.258;-121.918;2022-08-19T10:50:38;7.14;;;7.04;;
50345;SDS011;36248;37.258;-121.918;2022-08-19T10:53:23;6.80;;;6.69;;
50345;SDS011;36248;37.258;-121.918;2022-08-19T10:55:52;6.76;;;6.74;;
50345;SDS011;36248;37.258;-121.918;2022-08-19T10:58:38;6.81;;;6.81;;
50345;SDS011;36248;37.258;-121.918;2022-08-19T11:01:10;6.27;;;6.27;;
50345;SDS011;36248;37.258;-121.918;2022-08-19T11:03:39;6.84;;;6.67;;
50345;SDS011;36248;37.258;-121.918;2022-08-19T11:06:11;6.30;;;6.22;;
50345;SDS011;36248;37.258;-121.918;2022-08-19T11:08:40;6.68;;;6.64;;
50345;SDS011;36248;37.258;-121.918;2022-08-19T11:11:11;6.50;;;6.50;;
50345;SDS011;36248;37.258;-121.918;2022-08-19T11:13:41;6.41;;;6.31;;
50345;SDS011;36248;37.258;-121.918;2022-08-19T11:16:15;6.98;;;6.80;;
50345;SDS011;36248;37.258;-121.918;2022-08-19T11:18:48;6.60;;;6.52;;
50345;SDS011;36248;37.258;-121.918;2022-08-19T11:21:20;6.39;;;6.39;;
50345;SDS011;36248;37.258;-121.918;2022-08-19T11:23:52;6.37;;;6.29;;
50345;SDS011;36248;37.258;-121.918;2022-08-19T11:26:23;6.51;;;6.31;;
50345;SDS011;36248;37.258;-121.918;2022-08-19T11:28:53;6.13;;;6.13;;
50345;SDS011;36248;37.258;-121.918;2022-08-19T11:31:27;6.03;;;6.03;;
50345;SDS011;36248;37.258;-121.918;2022-08-19T11:33:59;6.92;;;6.83;;
50345;SDS011;36248;37.258;-121.918;2022-08-19T11:36:30;6.28;;;6.21;;
50345;SDS011;36248;37.258;-121.918;2022-08-19T11:38:59;6.56;;;6.51;;
50345;SDS011;36248;37.258;-121.918;2022-08-19T11:41:29;6.18;;;6.12;;
50345;SDS011;36248;37.258;-121.918;2022-08-19T11:43:58;5.95;;;5.94;;
50345;SDS011;36248;37.258;-121.918;2022-08-19T11:46:33;6.22;;;6.21;;
50345;SDS011;36248;37.258;-121.918;2022-08-19T11:49:02;5.92;;;5.92;;
50345;SDS011;36248;37.258;-121.918;2022-08-19T11:51:35;6.24;;;6.24;;
50345;SDS011;36248;37.258;-121.918;2022-08-19T11:54:05;6.27;;;6.27;;
50345;SDS011;36248;37.258;-121.918;2022-08-19T11:56:36;6.10;;;6.09;;
50345;SDS011;36248;37.258;-121.918;2022-08-19T11:59:06;6.37;;;6.37;;
50345;SDS011;36248;37.258;-121.918;2022-08-19T12:01:38;7.41;;;7.31;;
50345;SDS011;36248;37.258;-121.918;2022-08-19T12:04:09;7.68;;;7.60;;
50345;SDS011;36248;37.258;-121.918;2022-08-19T12:06:39;7.74;;;7.58;;
50345;SDS011;36248;37.258;-121.918;2022-08-19T12:09:10;7.64;;;7.49;;
50345;SDS011;36248;37.258;-121.918;2022-08-19T12:11:41;7.19;;;7.19;;
50345;SDS011;36248;37.258;-121.918;2022-08-19T12:14:12;8.22;;;8.03;;
50345;SDS011;36248;37.258;-121.918;2022-08-19T12:16:46;7.90;;;7.68;;
50345;SDS011;36248;37.258;-121.918;2022-08-19T12:19:16;7.87;;;7.68;;
50345;SDS011;36248;37.258;-121.918;2022-08-19T12:21:46;7.47;;;7.45;;
50345;SDS011;36248;37.258;-121.918;2022-08-19T12:24:15;7.64;;;7.62;;
50345;SDS011;36248;37.258;-121.918;2022-08-19T12:26:48;7.99;;;7.93;;
50345;SDS011;36248;37.258;-121.918;2022-08-19T12:29:19;8.03;;;7.97;;
50345;SDS011;36248;37.258;-121.918;2022-08-19T12:31:58;8.03;;;8.03;;
50345;SDS011;36248;37.258;-121.918;2022-08-19T12:34:29;7.79;;;7.79;;
50345;SDS011;36248;37.258;-121.918;2022-08-19T12:37:01;7.88;;;7.86;;
50345;SDS011;36248;37.258;-121.918;2022-08-19T12:39:33;8.02;;;7.87;;
50345;SDS011;36248;37.258;-121.918;2022-08-19T12:42:04;9.00;;;8.71;;
50345;SDS011;36248;37.258;-121.918;2022-08-19T12:44:34;8.51;;;8.30;;
50345;SDS011;36248;37.258;-121.918;2022-08-19T12:47:09;8.65;;;8.46;;
50345;SDS011;36248;37.258;-121.918;2022-08-19T12:49:40;8.11;;;8.11;;
50345;SDS011;36248;37.258;-121.918;2022-08-19T12:52:10;7.41;;;7.41;;
50345;SDS011;36248;37.258;-121.918;2022-08-19T12:54:42;7.69;;;7.69;;
50345;SDS011;36248;37.258;-121.918;2022-08-19T12:57:12;7.50;;;7.45;;
50345;SDS011;36248;37.258;-121.918;2022-08-19T12:59:41;7.50;;;7.45;;
50345;SDS011;36248;37.258;-121.918;2022-08-19T13:02:13;7.67;;;7.52;;
50345;SDS011;36248;37.258;-121.918;2022-08-19T13:04:43;7.28;;;7.24;;
50345;SDS011;36248;37.258;-121.918;2022-08-19T13:07:12;7.24;;;7.21;;
50345;SDS011;36248;37.258;-121.918;2022-08-19T13:09:42;7.70;;;7.63;;
50345;SDS011;36248;37.258;-121.918;2022-08-19T13:12:12;7.54;;;7.41;;
50345;SDS011;36248;37.258;-121.918;2022-08-19T13:14:41;7.88;;;7.68;;
50345;SDS011;36248;37.258;-121.918;2022-08-19T13:17:18;7.78;;;7.76;;
50345;SDS011;36248;37.258;-121.918;2022-08-19T13:19:48;7.96;;;7.83;;
50345;SDS011;36248;37.258;-121.918;2022-08-19T13:22:18;7.83;;;7.77;;
50345;SDS011;36248;37.258;-121.918;2022-08-19T13:24:48;7.52;;;7.42;;
50345;SDS011;36248;37.258;-121.918;2022-08-19T13:27:18;7.53;;;7.53;;
50345;SDS011;36248;37.258;-121.918;2022-08-19T13:29:48;7.34;;;7.34;;
50345;SDS011;36248;37.258;-121.918;2022-08-19T13:32:35;7.82;;;7.82;;
50345;SDS011;36248;37.258;-121.918;2022-08-19T13:35:21;7.16;;;7.14;;
50345;SDS011;36248;37.258;-121.918;2022-08-19T13:37:51;7.45;;;7.41;;
50345;SDS011;36248;37.258;-121.918;2022-08-19T13:40:21;7.72;;;7.72;;
50345;SDS011;36248;37.258;-121.918;2022-08-19T13:42:53;7.84;;;7.84;;
50345;SDS011;36248;37.258;-121.918;2022-08-19T13:45:24;8.26;;;8.20;;
50345;SDS011;36248;37.258;-121.918;2022-08-19T13:47:56;7.79;;;7.79;;
50345;SDS011;36248;37.258;-121.918;2022-08-19T13:50:27;8.13;;;8.13;;
50345;SDS011;36248;37.258;-121.918;2022-08-19T13:52:58;8.60;;;8.51;;
50345;SDS011;36248;37.258;-121.918;2022-08-19T13:55:28;8.42;;;8.25;;
50345;SDS011;36248;37.258;-121.918;2022-08-19T13:57:58;8.23;;;8.16;;
50345;SDS011;36248;37.258;-121.918;2022-08-19T14:00:30;8.18;;;8.18;;
50345;SDS011;36248;37.258;-121.918;2022-08-19T14:03:06;8.16;;;8.16;;
50345;SDS011;36248;37.258;-121.918;2022-08-19T14:05:35;8.23;;;8.22;;
50345;SDS011;36248;37.258;-121.918;2022-08-19T14:08:05;7.77;;;7.77;;
50345;SDS011;36248;37.258;-121.918;2022-08-19T14:10:35;7.63;;;7.62;;
50345;SDS011;36248;37.258;-121.918;2022-08-19T14:13:08;8.32;;;8.32;;
50345;SDS011;36248;37.258;-121.918;2022-08-19T14:15:37;7.89;;;7.89;;
50345;SDS011;36248;37.258;-121.918;2022-08-19T14:18:10;8.25;;;8.23;;
50345;SDS011;36248;37.258;-121.918;2022-08-19T14:20:39;7.90;;;7.90;;
50345;SDS011;36248;37.258;-121.918;2022-08-19T14:23:08;8.33;;;8.33;;
50345;SDS011;36248;37.258;-121.918;2022-08-19T14:25:39;8.97;;;8.93;;
50345;SDS011;36248;37.258;-121.918;2022-08-19T14:28:09;9.11;;;9.11;;
50345;SDS011;36248;37.258;-121.918;2022-08-19T14:30:38;8.44;;;8.43;;
50345;SDS011;36248;37.258;-121.918;2022-08-19T14:33:13;8.94;;;8.72;;